Weather History for Warroad, MN

Change the Weather History Date:

Sunday, August 5, 2012

  Actual Average Record
Temperature  
Mean Temperature 60 °F -  
Max Temperature 75 °F 77 °F 94 °F (1983)
Min Temperature 46 °F 54 °F 33 °F (2002)
Degree Days  
Heating Degree Days 4    
Growing Degree Days 10 (Base 50)    
Moisture  
Dew Point 51 °F    
Average Humidity 68    
Maximum Humidity 88    
Minimum Humidity 47    
Precipitation  
Precipitation 0.00 in - - ()
Sea Level Pressure  
Sea Level Pressure 30.03 in    
Wind  
Wind Speed 8 mph (WSW)    
Max Wind Speed 17 mph    
Max Gust Speed 25 mph    
Visibility 10 miles    
Events      
Averages and records for this station are not official NWS values.
T = Trace of Precipitation, MM = Missing Value Source: NWS Daily Summary

Daily Weather History Graph

Daily Weather History Graph

Search for Another Location

Airport:

Trip Planner

Search our weather history database for the weather conditions in past years. The results will help you decide how hot, cold, wet, or windy it might be!

Date:

Astronomy

Aug. 05, 2012 Rise Set
Actual Time 6:00 AM CDT 8:53 PM CDT
Civil Twilight 5:23 AM CDT 9:29 PM CDT
Nautical Twilight 4:36 AM CDT 10:16 PM CDT
Astronomical Twilight 3:39 AM CDT 11:12 PM CDT
Moon 10:02 PM CDT (8/5) 10:17 AM CDT (8/5)
Length of Visible Light 16h 05m
Length of Day
14h 52m
Waning Gibbous, 86% of the Moon is Illuminated
Aug 5
Waning Gibbous
Aug 9
Last Quarter
Aug 17
New
Aug 24
First Quarter
Aug 31
Full

Hourly Weather History & Observations

Time (CDT) Temp. Windchill Dew Point Humidity Pressure Visibility Wind Dir Wind Speed Gust Speed Precip Events Conditions
12:14 AM 53.6 °F - 48.2 °F 82% 30.01 in 10.0 mi West 6.9 mph - N/A   Scattered Clouds
12:34 AM 53.6 °F - 48.2 °F 82% 30.02 in 10.0 mi West 6.9 mph - N/A   Scattered Clouds
12:54 AM 53.6 °F - 48.2 °F 82% 30.02 in 10.0 mi West 5.8 mph - N/A   Clear
1:14 AM 51.8 °F - 48.2 °F 88% 30.03 in 10.0 mi West 4.6 mph - N/A   Clear
1:34 AM 51.8 °F - 48.2 °F 88% 30.03 in 10.0 mi West 4.6 mph - N/A   Scattered Clouds
1:54 AM 50.0 °F - 46.4 °F 87% 30.03 in 10.0 mi West 4.6 mph - N/A   Clear
2:14 AM 50.0 °F - 46.4 °F 87% 30.03 in 10.0 mi WSW 5.8 mph - N/A   Clear
2:34 AM 48.2 °F - 44.6 °F 87% 30.03 in 10.0 mi West 6.9 mph - N/A   Clear
2:54 AM 48.2 °F - 44.6 °F 87% 30.03 in 10.0 mi WSW 6.9 mph - N/A   Clear
3:13 AM 48.2 °F - 44.6 °F 87% 30.03 in 10.0 mi West 5.8 mph - N/A   Clear
3:34 AM 46.4 °F 42.9 °F 42.8 °F 87% 30.04 in 10.0 mi West 6.9 mph - N/A   Clear
3:54 AM 46.4 °F 42.9 °F 42.8 °F 87% 30.04 in 10.0 mi WSW 6.9 mph - N/A   Clear
4:13 AM 46.4 °F 42.9 °F 42.8 °F 87% 30.04 in 10.0 mi WSW 6.9 mph - N/A   Clear
4:34 AM 46.4 °F 43.5 °F 42.8 °F 87% 30.04 in 10.0 mi WSW 5.8 mph - N/A   Clear
4:54 AM 46.4 °F 43.5 °F 42.8 °F 87% 30.04 in 10.0 mi WSW 5.8 mph - N/A   Clear
5:13 AM 46.4 °F 42.4 °F 42.8 °F 87% 30.04 in 10.0 mi WSW 8.1 mph - N/A   Clear
5:34 AM 46.4 °F 42.4 °F 42.8 °F 87% 30.05 in 10.0 mi West 8.1 mph - N/A   Clear
5:54 AM 46.4 °F 42.4 °F 42.8 °F 87% 30.05 in 10.0 mi WSW 8.1 mph - N/A   Clear
6:13 AM 46.4 °F 42.9 °F 42.8 °F 87% 30.05 in 10.0 mi WSW 6.9 mph - N/A   Clear
6:34 AM 46.4 °F 42.4 °F 42.8 °F 87% 30.05 in 10.0 mi WSW 8.1 mph - N/A   Clear
6:54 AM 46.4 °F 41.9 °F 42.8 °F 87% 30.06 in 10.0 mi WSW 9.2 mph - N/A   Clear
7:14 AM 48.2 °F - 44.6 °F 87% 30.06 in 10.0 mi WSW 9.2 mph - N/A   Clear
7:34 AM 48.2 °F - 44.6 °F 87% 30.07 in 10.0 mi WSW 8.1 mph - N/A   Clear
7:54 AM 51.8 °F - 46.4 °F 82% 30.07 in 10.0 mi WSW 9.2 mph - N/A   Clear
8:13 AM 53.6 °F - 48.2 °F 82% 30.07 in 10.0 mi WSW 9.2 mph - N/A   Clear
8:34 AM 55.4 °F - 48.2 °F 77% 30.08 in 10.0 mi WSW 6.9 mph - N/A   Clear
8:54 AM 57.2 °F - 48.2 °F 72% 30.07 in 10.0 mi WSW 8.1 mph - N/A   Clear
9:14 AM 59.0 °F - 50.0 °F 72% 30.08 in 10.0 mi West 9.2 mph - N/A   Clear
9:34 AM 62.6 °F - 51.8 °F 68% 30.08 in 10.0 mi WSW 8.1 mph - N/A   Clear
9:54 AM 62.6 °F - 50.0 °F 63% 30.08 in 10.0 mi West 11.5 mph - N/A   Clear
10:14 AM 64.4 °F - 51.8 °F 64% 30.08 in 10.0 mi WSW 10.4 mph 16.1 mph N/A   Clear
10:34 AM 64.4 °F - 51.8 °F 64% 30.08 in 10.0 mi SW 9.2 mph - N/A   Clear
10:54 AM 66.2 °F - 51.8 °F 60% 30.08 in 10.0 mi WSW 10.4 mph 16.1 mph N/A   Clear
11:13 AM 66.2 °F - 51.8 °F 60% 30.08 in 10.0 mi SW 10.4 mph 16.1 mph N/A   Clear
11:34 AM 68.0 °F - 51.8 °F 56% 30.08 in 10.0 mi WSW 12.7 mph 16.1 mph N/A   Clear
11:54 AM 69.8 °F - 53.6 °F 56% 30.07 in 10.0 mi West 10.4 mph 16.1 mph N/A   Clear
12:14 PM 69.8 °F - 51.8 °F 53% 30.07 in 10.0 mi WSW 10.4 mph 17.3 mph N/A   Clear
12:34 PM 71.6 °F - 53.6 °F 53% 30.06 in 10.0 mi West 10.4 mph - N/A   Clear
12:54 PM 71.6 °F - 51.8 °F 50% 30.06 in 10.0 mi WSW 16.1 mph 20.7 mph N/A   Clear
1:14 PM 71.6 °F - 53.6 °F 53% 30.06 in 10.0 mi WSW 13.8 mph 19.6 mph N/A   Clear
1:34 PM 71.6 °F - 53.6 °F 53% 30.05 in 10.0 mi WSW 10.4 mph 21.9 mph N/A   Clear
1:54 PM 71.6 °F - 53.6 °F 53% 30.05 in 10.0 mi SW 11.5 mph 21.9 mph N/A   Clear
2:14 PM 73.4 °F - 53.6 °F 50% 30.04 in 10.0 mi SW 15.0 mph 21.9 mph N/A   Clear
2:34 PM 73.4 °F - 53.6 °F 50% 30.04 in 10.0 mi WSW 13.8 mph 21.9 mph N/A   Clear
2:54 PM 73.4 °F - 53.6 °F 50% 30.04 in 10.0 mi SW 16.1 mph 21.9 mph N/A   Clear
3:14 PM 73.4 °F - 55.4 °F 53% 30.03 in 10.0 mi West 13.8 mph 25.3 mph N/A   Clear
3:34 PM 75.2 °F - 55.4 °F 50% 30.03 in 10.0 mi WSW 17.3 mph 23.0 mph N/A   Clear
3:54 PM 75.2 °F - 53.6 °F 47% 30.02 in 10.0 mi WSW 11.5 mph 21.9 mph N/A   Clear
4:14 PM 75.2 °F - 53.6 °F 47% 30.01 in 10.0 mi SW 12.7 mph 21.9 mph N/A   Clear
4:34 PM 75.2 °F - 55.4 °F 50% 30.01 in 10.0 mi WSW 15.0 mph 23.0 mph N/A   Clear
4:54 PM 75.2 °F - 53.6 °F 47% 30.01 in 10.0 mi WSW 16.1 mph 19.6 mph N/A   Clear
5:14 PM 75.2 °F - 55.4 °F 50% 30.00 in 10.0 mi WSW 11.5 mph 18.4 mph N/A   Clear
5:34 PM 75.2 °F - 55.4 °F 50% 29.99 in 10.0 mi WSW 12.7 mph 18.4 mph N/A   Clear
5:54 PM 75.2 °F - 55.4 °F 50% 29.99 in 10.0 mi WSW 10.4 mph 19.6 mph N/A   Clear
6:13 PM 75.2 °F - 55.4 °F 50% 29.99 in 10.0 mi WSW 15.0 mph 21.9 mph N/A   Clear
6:34 PM 75.2 °F - 55.4 °F 50% 29.98 in 10.0 mi SW 12.7 mph 18.4 mph N/A   Clear
6:54 PM 75.2 °F - 55.4 °F 50% 29.97 in 10.0 mi SW 10.4 mph - N/A   Clear
7:14 PM 75.2 °F - 55.4 °F 50% 29.97 in 10.0 mi SW 13.8 mph 17.3 mph N/A   Clear
7:34 PM 75.2 °F - 55.4 °F 50% 29.97 in 10.0 mi SW 11.5 mph - N/A   Clear
7:54 PM 73.4 °F - 55.4 °F 53% 29.96 in 10.0 mi SW 9.2 mph - N/A   Clear
8:14 PM 73.4 °F - 55.4 °F 53% 29.96 in 10.0 mi SW 6.9 mph - N/A   Clear
8:34 PM 71.6 °F - 55.4 °F 57% 29.96 in 10.0 mi SW 8.1 mph - N/A   Clear
8:54 PM 69.8 °F - 55.4 °F 60% 29.96 in 10.0 mi SSW 5.8 mph - N/A   Clear
9:14 PM 66.2 °F - 57.2 °F 73% 29.96 in 10.0 mi SSW 5.8 mph - N/A   Clear
9:34 PM 66.2 °F - 57.2 °F 73% 29.96 in 10.0 mi SSW 5.8 mph - N/A   Clear
9:54 PM 66.2 °F - 57.2 °F 73% 29.96 in 10.0 mi SSW 6.9 mph - N/A   Clear
10:14 PM 66.2 °F - 57.2 °F 73% 29.97 in 10.0 mi SSW 8.1 mph - N/A   Clear
10:34 PM 66.2 °F - 57.2 °F 73% 29.96 in 10.0 mi SW 8.1 mph - N/A   Clear
10:54 PM 66.2 °F - 57.2 °F 73% 29.96 in 10.0 mi SSW 8.1 mph - N/A   Clear
11:14 PM 66.2 °F - 55.4 °F 68% 29.96 in 10.0 mi SW 9.2 mph - N/A   Clear
11:34 PM 66.2 °F - 55.4 °F 68% 29.96 in 10.0 mi SSW 8.1 mph - N/A   Clear
11:54 PM 64.4 °F - 55.4 °F 73% 29.96 in 10.0 mi SSW 8.1 mph - N/A   Clear